createdAt,value
2017-05-10T00:00:16.749Z,7.2
2017-05-10T00:01:19.126Z,7.3
2017-05-10T00:02:21.545Z,7.3
2017-05-10T00:03:23.917Z,7.1
2017-05-10T00:04:26.294Z,7.2
2017-05-10T00:05:28.655Z,7.2
2017-05-10T00:06:31.034Z,7.1
2017-05-10T00:07:33.632Z,7.2
2017-05-10T00:08:35.993Z,7.2
2017-05-10T00:09:38.438Z,7.2
2017-05-10T00:10:40.877Z,7.2
2017-05-10T00:11:43.347Z,7.2
2017-05-10T00:12:46.016Z,7.2
2017-05-10T00:13:48.422Z,7.2
2017-05-10T00:14:50.764Z,7.3
2017-05-10T00:15:53.159Z,7.3
2017-05-10T00:16:55.526Z,7.2
2017-05-10T00:17:57.889Z,7.1
2017-05-10T00:19:00.291Z,7.1
2017-05-10T00:20:02.731Z,7.3
2017-05-10T00:21:05.102Z,7.1
2017-05-10T00:22:07.479Z,7
2017-05-10T00:23:09.848Z,7
2017-05-10T00:24:12.245Z,7.1
2017-05-10T00:25:14.617Z,7.1
2017-05-10T00:26:16.977Z,7
2017-05-10T00:27:19.307Z,7.1
2017-05-10T00:28:21.687Z,7
2017-05-10T00:29:24.011Z,7.1
2017-05-10T00:30:26.416Z,7.2
2017-05-10T00:31:28.819Z,7.2
2017-05-10T00:32:31.185Z,7.1
2017-05-10T00:33:33.545Z,7
2017-05-10T00:34:35.929Z,7.1
2017-05-10T00:35:38.289Z,7
2017-05-10T00:36:40.658Z,6.9
2017-05-10T00:37:42.997Z,6.9
2017-05-10T00:38:45.361Z,6.9
2017-05-10T00:39:47.758Z,7
2017-05-10T00:40:50.121Z,7
2017-05-10T00:41:52.463Z,6.8
2017-05-10T00:42:54.809Z,6.7
2017-05-10T00:43:57.143Z,6.7
2017-05-10T00:44:59.513Z,6.8
2017-05-10T00:46:01.856Z,6.8
2017-05-10T00:47:04.230Z,6.8
2017-05-10T00:48:06.596Z,6.7
2017-05-10T00:49:08.976Z,6.7
2017-05-10T00:50:11.388Z,6.7
2017-05-10T00:51:13.771Z,6.4
2017-05-10T00:52:16.130Z,6.6
2017-05-10T00:53:18.462Z,6.7
2017-05-10T00:54:20.838Z,6.6
2017-05-10T00:55:23.201Z,6.7
2017-05-10T00:56:25.507Z,6.7
2017-05-10T00:57:27.856Z,6.6
2017-05-10T00:58:30.256Z,6.7
2017-05-10T00:59:32.638Z,6.7
2017-05-10T01:00:34.973Z,6.6
2017-05-10T01:01:37.352Z,6.7
2017-05-10T01:02:39.715Z,6.8
2017-05-10T01:03:42.179Z,6.8
2017-05-10T01:04:44.551Z,6.7
2017-05-10T01:05:46.981Z,6.8
2017-05-10T01:06:49.381Z,6.7
2017-05-10T01:07:52.175Z,6.6
2017-05-10T01:08:54.603Z,6.7
2017-05-10T01:09:56.984Z,6.7
2017-05-10T01:10:59.399Z,6.7
2017-05-10T01:12:01.814Z,6.6
2017-05-10T01:13:04.156Z,6.6
2017-05-10T01:16:33.874Z,6.6
2017-05-10T01:17:36.317Z,6.6
2017-05-10T01:18:38.749Z,6.6
2017-05-10T01:19:41.143Z,6.5
2017-05-10T01:20:43.518Z,6.4
2017-05-10T01:21:45.954Z,6.4
2017-05-10T01:22:48.333Z,6.2
2017-05-10T01:23:50.922Z,6
2017-05-10T01:24:53.393Z,6.4
2017-05-10T01:25:55.777Z,6.4
2017-05-10T01:26:58.159Z,6.4
2017-05-10T01:28:00.888Z,6.5
2017-05-10T01:29:03.237Z,6.4
2017-05-10T01:30:05.575Z,6.4
2017-05-10T01:31:07.902Z,6.4
2017-05-10T01:32:10.310Z,6.2
2017-05-10T01:33:12.700Z,6.3
2017-05-10T01:34:15.046Z,6.3
2017-05-10T01:35:17.389Z,6.3
2017-05-10T01:36:21.116Z,6.5
2017-05-10T01:37:23.559Z,6.5
2017-05-10T01:38:25.932Z,6.5
2017-05-10T01:39:28.283Z,6.5
2017-05-10T01:40:30.631Z,6.5
2017-05-10T01:41:32.990Z,6.4
2017-05-10T01:42:35.365Z,6.3
2017-05-10T01:43:37.765Z,6.2
2017-05-10T01:44:40.207Z,6.3
2017-05-10T01:45:42.541Z,6.4
2017-05-10T01:46:44.903Z,6.4
2017-05-10T01:47:47.363Z,6.4
2017-05-10T01:48:49.767Z,6.5
2017-05-10T01:49:52.177Z,6.4
2017-05-10T01:50:54.521Z,6.4
2017-05-10T01:51:56.867Z,6.4
2017-05-10T01:52:59.260Z,6.3
2017-05-10T01:54:01.670Z,6.2
2017-05-10T01:55:04.044Z,6.1
2017-05-10T01:56:06.399Z,6.1
2017-05-10T01:57:08.997Z,5.9
2017-05-10T01:58:11.396Z,6.3
2017-05-10T01:59:13.753Z,6.4
2017-05-10T02:00:16.103Z,6.3
2017-05-10T02:01:18.497Z,6.4
2017-05-10T02:02:20.919Z,6.4
2017-05-10T02:03:23.337Z,6.4
2017-05-10T02:04:25.680Z,6.3
2017-05-10T02:05:28.062Z,6.3
2017-05-10T02:06:31.124Z,6.2
2017-05-10T02:07:33.513Z,6.1
2017-05-10T02:08:35.865Z,6.2
2017-05-10T02:09:38.304Z,6.2
2017-05-10T02:10:40.781Z,6.2
2017-05-10T02:11:43.222Z,6.3
2017-05-10T02:12:45.603Z,6.3
2017-05-10T02:13:48.078Z,6.5
2017-05-10T02:14:50.461Z,6.5
2017-05-10T02:15:52.810Z,6.6
2017-05-10T02:16:55.203Z,6.4
2017-05-10T02:17:57.633Z,6.1
2017-05-10T02:19:00.118Z,6
2017-05-10T02:20:02.641Z,6
2017-05-10T02:21:04.986Z,6
2017-05-10T02:22:07.359Z,6.1
2017-05-10T02:23:09.813Z,6.1
2017-05-10T02:24:12.233Z,6.2
2017-05-10T02:25:14.585Z,6.1
2017-05-10T02:26:16.970Z,6.1
2017-05-10T02:27:19.360Z,6.2
2017-05-10T02:28:21.751Z,6.2
2017-05-10T02:29:24.119Z,5.8
2017-05-10T02:30:26.472Z,6
2017-05-10T02:31:28.868Z,5.9
2017-05-10T02:32:31.340Z,5.9
2017-05-10T02:33:33.746Z,6.1
2017-05-10T02:34:36.200Z,6
2017-05-10T02:35:38.622Z,6
2017-05-10T02:37:52.669Z,5.6
2017-05-10T02:38:55.020Z,5.9
2017-05-10T02:39:57.434Z,5.9
2017-05-10T02:40:59.860Z,5.9
2017-05-10T02:42:02.256Z,6
2017-05-10T02:43:04.710Z,6
2017-05-10T02:44:07.094Z,5.9
2017-05-10T02:45:09.542Z,5.9
2017-05-10T02:46:11.909Z,5.9
2017-05-10T02:47:14.304Z,5.9
2017-05-10T02:48:16.686Z,5.9
2017-05-10T02:49:19.063Z,5.9
2017-05-10T02:50:21.690Z,5.8
2017-05-10T02:51:24.264Z,5.7
2017-05-10T02:52:26.679Z,5.8
2017-05-10T02:53:29.261Z,5.8
2017-05-10T02:54:31.656Z,5.8
2017-05-10T02:55:34.064Z,5.9
2017-05-10T02:56:36.441Z,5.9
2017-05-10T02:57:38.863Z,5.9
2017-05-10T02:58:41.243Z,5.7
2017-05-10T02:59:43.634Z,5.7
2017-05-10T03:00:45.997Z,5.6
2017-05-10T03:01:48.415Z,5.6
2017-05-10T03:02:50.811Z,5.5
2017-05-10T03:03:53.268Z,5.4
2017-05-10T03:04:55.700Z,5.4
2017-05-10T03:05:58.089Z,5.5
2017-05-10T03:07:00.508Z,5.2
2017-05-10T03:08:02.905Z,5
2017-05-10T03:09:05.265Z,4.8
2017-05-10T03:10:07.634Z,4.8
2017-05-10T03:11:10.025Z,5
2017-05-10T03:12:12.424Z,5.1
2017-05-10T03:13:14.823Z,5.3
2017-05-10T03:14:17.229Z,5.2
2017-05-10T03:15:19.549Z,5.1
2017-05-10T03:16:22.005Z,5
2017-05-10T03:17:24.377Z,4.8
2017-05-10T03:18:26.745Z,4.9
2017-05-10T03:19:29.066Z,5.1
2017-05-10T03:20:31.421Z,5.2
2017-05-10T03:21:33.815Z,5
2017-05-10T03:22:36.163Z,5.1
2017-05-10T03:23:38.555Z,5.1
2017-05-10T03:24:40.970Z,5.1
2017-05-10T03:25:43.364Z,4.9
2017-05-10T03:26:45.771Z,5
2017-05-10T03:27:48.199Z,5
2017-05-10T03:28:50.760Z,5
2017-05-10T03:29:53.127Z,4.8
2017-05-10T03:30:55.518Z,4.7
2017-05-10T03:31:57.889Z,4.9
2017-05-10T03:33:00.345Z,4.8
2017-05-10T03:34:02.790Z,4.6
2017-05-10T03:35:05.222Z,4.5
2017-05-10T03:36:07.633Z,4.6
2017-05-10T03:37:09.975Z,4.5
2017-05-10T03:38:12.373Z,4.5
2017-05-10T03:39:14.814Z,4.2
2017-05-10T03:40:17.244Z,4.6
2017-05-10T03:41:19.643Z,4.4
2017-05-10T03:42:22.027Z,4.4
2017-05-10T03:43:24.407Z,4.3
2017-05-10T03:44:26.800Z,4.4
2017-05-10T03:45:29.333Z,4.4
2017-05-10T03:46:31.737Z,4.4
2017-05-10T03:47:34.112Z,4.5
2017-05-10T03:48:36.552Z,4.7
2017-05-10T03:49:38.923Z,4.6
2017-05-10T03:50:41.299Z,4.7
2017-05-10T03:51:43.933Z,4.7
2017-05-10T03:52:46.367Z,4.7
2017-05-10T03:53:48.769Z,4.7
2017-05-10T03:54:51.167Z,4.9
2017-05-10T03:55:53.534Z,4.9
2017-05-10T03:56:55.900Z,4.8
2017-05-10T03:57:58.340Z,4.9
2017-05-10T03:59:00.761Z,4.9
2017-05-10T04:00:03.152Z,4.9
2017-05-10T04:01:05.498Z,5.1
2017-05-10T04:02:07.879Z,5.1
2017-05-10T04:03:10.261Z,5.1
2017-05-10T04:04:12.633Z,4.9
2017-05-10T04:05:15.024Z,4.9
2017-05-10T04:06:17.414Z,4.6
2017-05-10T04:07:19.778Z,4.5
2017-05-10T04:08:22.223Z,4.7
2017-05-10T04:09:24.552Z,4.6
2017-05-10T04:10:26.992Z,4.7
2017-05-10T04:11:29.339Z,4.9
2017-05-10T04:12:31.743Z,4.7
2017-05-10T04:13:34.189Z,4.7
2017-05-10T04:14:36.559Z,4.7
2017-05-10T04:15:39.114Z,4.9
2017-05-10T04:16:42.020Z,4.9
2017-05-10T04:17:44.705Z,5.1
2017-05-10T04:18:47.152Z,5.1
2017-05-10T04:19:49.531Z,5.2
2017-05-10T04:20:52.020Z,5
2017-05-10T04:21:54.363Z,4.9
2017-05-10T04:22:56.768Z,4.9
2017-05-10T04:23:59.103Z,5.3
2017-05-10T04:25:01.444Z,5.4
2017-05-10T04:26:03.829Z,5.4
2017-05-10T04:27:06.233Z,5.5
2017-05-10T04:28:08.607Z,5.5
2017-05-10T04:29:11.053Z,5.5
2017-05-10T04:30:13.422Z,5.5
2017-05-10T04:31:15.813Z,5.5
2017-05-10T04:32:18.774Z,5.7
2017-05-10T04:33:22.544Z,5.7
2017-05-10T04:34:25.892Z,5.5
2017-05-10T04:35:32.178Z,5.7
2017-05-10T04:36:34.815Z,6.1
2017-05-10T04:37:37.195Z,6.1
2017-05-10T04:38:39.635Z,6.2
2017-05-10T04:39:42.076Z,6.2
2017-05-10T04:40:44.472Z,6.2
2017-05-10T04:41:46.997Z,6.2
2017-05-10T04:42:49.658Z,6.3
2017-05-10T04:43:52.140Z,6.4
2017-05-10T04:44:54.573Z,6.4
2017-05-10T04:45:57.401Z,6.5
2017-05-10T04:46:59.779Z,6.6
2017-05-10T04:48:02.185Z,6.6
2017-05-10T04:49:04.548Z,6.7
2017-05-10T04:50:06.924Z,6.7
2017-05-10T04:51:09.267Z,6.5
2017-05-10T04:52:11.843Z,6.8
2017-05-10T04:53:14.274Z,6.8
2017-05-10T04:54:16.650Z,6.8
2017-05-10T04:55:19.150Z,6.6
2017-05-10T04:56:21.562Z,6.8
2017-05-10T04:57:23.940Z,6.9
2017-05-10T04:58:26.506Z,6.7
2017-05-10T04:59:28.898Z,7.1
2017-05-10T05:00:31.297Z,6.9
2017-05-10T05:01:33.696Z,7
2017-05-10T05:02:36.129Z,7
2017-05-10T05:03:38.485Z,7.1
2017-05-10T05:04:40.929Z,6.9
2017-05-10T05:05:43.327Z,7.3
2017-05-10T05:06:45.719Z,7.4
2017-05-10T05:07:48.104Z,7.4
2017-05-10T05:08:50.521Z,7.6
2017-05-10T05:09:52.931Z,7.5
2017-05-10T05:10:55.349Z,7.6
2017-05-10T05:11:57.721Z,7.8
2017-05-10T05:13:00.120Z,7.9
2017-05-10T05:14:02.594Z,7.8
2017-05-10T05:15:04.976Z,7.8
2017-05-10T05:16:07.351Z,7.8
2017-05-10T05:17:09.774Z,7.7
2017-05-10T05:18:16.150Z,7.6
2017-05-10T05:19:18.555Z,7.7
2017-05-10T05:20:21.065Z,7.8
2017-05-10T05:21:23.436Z,7.7
2017-05-10T05:22:25.833Z,7.5
2017-05-10T05:23:28.228Z,7.9
2017-05-10T05:24:30.709Z,7.9
2017-05-10T05:25:33.054Z,7.9
2017-05-10T05:26:35.414Z,7.9
2017-05-10T05:27:38.132Z,8
2017-05-10T05:28:40.636Z,8
2017-05-10T05:29:43.206Z,8
2017-05-10T05:30:45.631Z,8
2017-05-10T05:31:48.072Z,7.9
2017-05-10T05:32:51.270Z,8
2017-05-10T05:33:53.732Z,8.1
2017-05-10T05:34:56.245Z,8.1
2017-05-10T05:35:58.638Z,8.2
2017-05-10T05:37:01.113Z,8.2
2017-05-10T05:38:03.510Z,8.2
2017-05-10T05:39:05.932Z,8.3
2017-05-10T05:40:08.372Z,8.5
2017-05-10T05:41:10.794Z,8.4
2017-05-10T05:42:13.255Z,8.6
2017-05-10T05:43:15.693Z,8.6
2017-05-10T05:44:18.056Z,8.6
2017-05-10T05:45:20.538Z,8.8
2017-05-10T05:46:23.028Z,9
2017-05-10T05:47:25.431Z,9
2017-05-10T05:48:27.850Z,9
2017-05-10T05:49:30.253Z,8.9
2017-05-10T05:50:32.869Z,9.1
2017-05-10T05:51:35.236Z,9.1
2017-05-10T05:52:42.462Z,9.1
2017-05-10T05:53:44.942Z,9.6
2017-05-10T05:54:47.402Z,9.6
2017-05-10T05:55:50.062Z,9.8
2017-05-10T05:56:55.452Z,9.7
2017-05-10T05:57:57.900Z,9.8
2017-05-10T05:59:00.349Z,10
2017-05-10T06:00:02.828Z,10.5
2017-05-10T06:01:05.209Z,10.5
2017-05-10T06:02:07.578Z,10.9
2017-05-10T06:03:10.546Z,10.9
2017-05-10T06:04:13.047Z,11.1
2017-05-10T06:05:15.516Z,11.3
2017-05-10T06:06:23.963Z,11.5
2017-05-10T06:07:26.407Z,11.3
2017-05-10T06:08:28.766Z,11.5
2017-05-10T06:09:31.262Z,12.1
2017-05-10T06:10:33.885Z,12.3
2017-05-10T06:11:36.292Z,12.4
2017-05-10T06:12:38.767Z,12.4
2017-05-10T06:13:41.344Z,12
2017-05-10T06:14:43.731Z,12
2017-05-10T06:15:46.233Z,11.8
2017-05-10T06:16:48.701Z,12.2
2017-05-10T06:17:51.929Z,12.1
2017-05-10T06:18:55.287Z,12.3
2017-05-10T06:20:01.641Z,12.2
2017-05-10T06:21:03.994Z,13.1
2017-05-10T06:22:06.361Z,12.9
2017-05-10T06:23:08.790Z,13
2017-05-10T06:24:11.900Z,13.1
2017-05-10T06:25:14.302Z,12.8
2017-05-10T06:26:16.656Z,12.5
2017-05-10T06:27:19.017Z,12.7
2017-05-10T06:28:21.487Z,12.8
2017-05-10T06:29:23.882Z,12.4
2017-05-10T06:30:26.263Z,12.2
2017-05-10T06:31:28.641Z,12.2
2017-05-10T06:32:30.982Z,12.4
2017-05-10T06:33:33.367Z,12.3
2017-05-10T06:34:35.816Z,12.3
2017-05-10T06:35:38.153Z,12.4
2017-05-10T06:36:40.563Z,12.1
2017-05-10T06:37:42.968Z,12.4
2017-05-10T06:38:45.366Z,12.2
2017-05-10T06:39:47.726Z,12.3
2017-05-10T06:40:50.666Z,11.7
2017-05-10T06:41:53.153Z,11.8
2017-05-10T06:42:55.525Z,12.3
2017-05-10T06:43:57.996Z,12.3
2017-05-10T06:45:00.390Z,12.2
2017-05-10T06:46:02.828Z,12.1
2017-05-10T06:47:05.208Z,12
2017-05-10T06:48:07.599Z,12.2
2017-05-10T06:49:10.076Z,12.1
2017-05-10T06:50:12.539Z,12.1
2017-05-10T06:51:15.226Z,12.5
2017-05-10T06:52:17.719Z,12.2
2017-05-10T06:53:20.097Z,12.1
2017-05-10T06:54:22.520Z,12.1
2017-05-10T06:55:24.891Z,12.4
2017-05-10T06:56:27.302Z,12.2
2017-05-10T06:57:29.649Z,12.4
2017-05-10T06:58:32.091Z,12.8
2017-05-10T06:59:34.491Z,12.9
2017-05-10T07:00:36.887Z,12.7
2017-05-10T07:01:39.329Z,12.7
2017-05-10T07:02:41.779Z,12.7
2017-05-10T07:03:44.852Z,12.7
2017-05-10T07:04:47.820Z,12.8
2017-05-10T07:05:50.891Z,12.9
2017-05-10T07:06:53.257Z,13
2017-05-10T07:08:01.828Z,12.9
2017-05-10T07:09:08.552Z,13.2
2017-05-10T07:10:19.860Z,13
2017-05-10T07:11:22.237Z,13.1
2017-05-10T07:12:24.654Z,12.7
2017-05-10T07:13:27.034Z,12.8
2017-05-10T07:14:29.420Z,12.6
2017-05-10T07:15:31.831Z,12.9
2017-05-10T07:16:34.241Z,13.2
2017-05-10T07:17:36.644Z,13.6
2017-05-10T07:18:39.156Z,13.7
2017-05-10T07:19:44.540Z,13.9
2017-05-10T07:20:46.878Z,13.3
2017-05-10T07:21:49.266Z,13.5
2017-05-10T07:22:51.763Z,13.7
2017-05-10T07:23:54.135Z,14.1
2017-05-10T07:24:56.507Z,13.8
2017-05-10T07:25:58.969Z,13.7
2017-05-10T07:27:01.363Z,13.8
2017-05-10T07:28:04.013Z,14
2017-05-10T07:29:06.833Z,13.9
2017-05-10T07:30:13.394Z,14.1
2017-05-10T07:32:27.080Z,14.6
2017-05-10T07:33:29.702Z,15
2017-05-10T07:34:32.167Z,15.3
2017-05-10T07:35:34.558Z,14.8
2017-05-10T07:36:36.948Z,14.7
2017-05-10T07:37:39.353Z,14.7
2017-05-10T07:38:41.758Z,15
2017-05-10T07:39:44.143Z,15.2
2017-05-10T07:40:46.620Z,14.8
2017-05-10T07:41:49.040Z,15.1
2017-05-10T07:42:52.100Z,15.4
2017-05-10T07:43:54.484Z,14.8
2017-05-10T07:44:56.862Z,14.6
2017-05-10T07:45:59.238Z,14.9
2017-05-10T07:47:03.045Z,15.5
2017-05-10T07:48:06.382Z,15.8
2017-05-10T07:49:08.919Z,15.9
2017-05-10T07:50:11.289Z,15.8
2017-05-10T07:51:17.095Z,15.8
2017-05-10T07:52:19.603Z,15.9
2017-05-10T07:53:22.093Z,16.6
2017-05-10T07:54:24.611Z,16.7
2017-05-10T07:55:27.010Z,17
2017-05-10T07:56:30.129Z,17.6
2017-05-10T07:57:32.708Z,17.7
2017-05-10T07:58:35.106Z,18.1
2017-05-10T07:59:37.472Z,18
2017-05-10T08:00:39.878Z,17.6
2017-05-10T08:01:42.373Z,17.3
2017-05-10T08:02:44.762Z,17.5
2017-05-10T08:03:47.306Z,17.3
2017-05-10T08:04:49.719Z,18.1
2017-05-10T08:05:52.178Z,18.5
2017-05-10T08:06:54.613Z,19.1
2017-05-10T08:07:59.316Z,19.3
2017-05-10T08:09:01.781Z,18.9
2017-05-10T08:10:04.336Z,18.9
2017-05-10T08:11:06.743Z,19.6
2017-05-10T08:12:09.117Z,19.1
2017-05-10T08:13:11.455Z,19.2
2017-05-10T08:14:13.961Z,19.1
2017-05-10T08:15:16.418Z,19.1
2017-05-10T08:16:19.529Z,19.2
2017-05-10T08:17:21.969Z,19.6
2017-05-10T08:18:24.341Z,19.8
2017-05-10T08:19:26.816Z,20.5
2017-05-10T08:20:29.278Z,21.1
2017-05-10T08:21:31.768Z,21.3
2017-05-10T08:22:36.669Z,20.2
2017-05-10T08:23:39.082Z,18.6
2017-05-10T08:24:41.443Z,18.4
2017-05-10T08:25:43.926Z,20.3
2017-05-10T08:26:46.363Z,22.1
2017-05-10T08:27:49.787Z,22.7
2017-05-10T08:28:52.252Z,22.1
2017-05-10T08:29:54.633Z,21.7
2017-05-10T08:30:57.000Z,21.1
2017-05-10T08:31:59.395Z,21.2
2017-05-10T08:33:01.902Z,20.8
2017-05-10T08:34:04.353Z,21.7
2017-05-10T08:35:06.753Z,22.7
2017-05-10T08:36:09.099Z,22.9
2017-05-10T08:37:11.532Z,22.9
2017-05-10T08:38:13.950Z,21.2
2017-05-10T08:39:16.329Z,19.8
2017-05-10T08:40:18.781Z,20.5
2017-05-10T08:41:21.774Z,22.2
2017-05-10T08:42:24.265Z,22.1
2017-05-10T08:43:26.659Z,21.5
2017-05-10T08:44:29.043Z,21.1
2017-05-10T08:45:31.449Z,22.2
2017-05-10T08:46:33.929Z,21.5
2017-05-10T08:47:36.326Z,20.9
2017-05-10T08:48:38.755Z,20.2
2017-05-10T08:49:41.871Z,19.5
2017-05-10T08:50:44.310Z,20.6
2017-05-10T08:51:46.717Z,21.4
2017-05-10T08:52:49.155Z,21
2017-05-10T08:53:51.543Z,20.7
2017-05-10T08:54:54.107Z,21.4
2017-05-10T08:55:57.279Z,20.8
2017-05-10T08:56:59.800Z,21.5
2017-05-10T08:58:02.746Z,21.5
2017-05-10T08:59:05.145Z,21.3
2017-05-10T09:00:07.524Z,22.3
2017-05-10T09:01:09.944Z,23.7
2017-05-10T09:02:12.429Z,24.7
2017-05-10T09:03:14.861Z,22.2
2017-05-10T09:04:17.264Z,22.7
2017-05-10T09:05:19.729Z,23.6
2017-05-10T09:06:22.186Z,23
2017-05-10T09:07:24.635Z,21.6
2017-05-10T09:08:27.017Z,21.5
2017-05-10T09:09:29.396Z,22.6
2017-05-10T09:10:31.766Z,22.6
2017-05-10T09:11:34.337Z,22.5
2017-05-10T09:12:36.717Z,23
2017-05-10T09:13:39.131Z,21.4
2017-05-10T09:14:41.552Z,23.2
2017-05-10T09:15:43.901Z,23.7
2017-05-10T09:16:46.303Z,24.3
2017-05-10T09:17:48.700Z,23
2017-05-10T09:18:51.096Z,24.1
2017-05-10T09:19:53.514Z,21.6
2017-05-10T09:20:55.972Z,19.4
2017-05-10T09:21:58.368Z,21.6
2017-05-10T09:23:00.800Z,23.4
2017-05-10T09:24:03.294Z,24.6
2017-05-10T09:25:05.996Z,23.7
2017-05-10T09:26:08.994Z,20.5
2017-05-10T09:27:11.354Z,20.8
2017-05-10T09:28:13.837Z,22.3
2017-05-10T09:29:16.295Z,23.1
2017-05-10T09:30:18.680Z,22.6
2017-05-10T09:31:21.142Z,21.7
2017-05-10T09:32:23.609Z,23.2
2017-05-10T09:33:25.997Z,24
2017-05-10T09:34:28.392Z,23
2017-05-10T09:35:31.777Z,22.4
2017-05-10T09:36:34.218Z,23.3
2017-05-10T09:37:36.561Z,23.2
2017-05-10T09:38:38.978Z,22.6
2017-05-10T09:39:41.402Z,23.7
2017-05-10T09:40:47.636Z,24.1
2017-05-10T09:41:50.069Z,24.4
2017-05-10T09:42:52.543Z,25.5
2017-05-10T09:43:54.933Z,25.2
2017-05-10T09:44:57.386Z,25.1
2017-05-10T09:45:59.844Z,25.3
2017-05-10T09:47:02.262Z,24.5
2017-05-10T09:48:04.680Z,23.6
2017-05-10T09:49:07.045Z,23.5
2017-05-10T09:50:10.452Z,23.5
2017-05-10T09:51:12.823Z,23.7
2017-05-10T09:52:15.205Z,25
2017-05-10T09:53:17.626Z,25
2017-05-10T09:54:20.038Z,22.2
2017-05-10T09:55:22.510Z,23.2
2017-05-10T09:56:24.878Z,23.8
2017-05-10T09:57:27.330Z,24.1
2017-05-10T09:58:29.728Z,24.5
2017-05-10T09:59:32.242Z,23.6
2017-05-10T10:00:34.649Z,23.5
2017-05-10T10:01:37.044Z,23.9
2017-05-10T10:02:39.512Z,23.1
2017-05-10T10:03:41.953Z,23.3
2017-05-10T10:04:44.436Z,23.8
2017-05-10T10:05:46.888Z,24.4
2017-05-10T10:06:49.290Z,25
2017-05-10T10:07:51.681Z,25
2017-05-10T10:08:54.070Z,25
2017-05-10T10:09:56.478Z,25.4
2017-05-10T10:10:58.860Z,23.8
2017-05-10T10:12:01.302Z,22.9
2017-05-10T10:13:03.722Z,22.8
2017-05-10T10:14:06.178Z,22.2
2017-05-10T10:15:08.721Z,22
2017-05-10T10:16:11.163Z,22.3
2017-05-10T10:17:13.658Z,21.6
2017-05-10T10:18:16.032Z,21.7
2017-05-10T10:19:18.412Z,21.2
2017-05-10T10:20:20.825Z,21.2
2017-05-10T10:21:23.337Z,21
2017-05-10T10:22:25.777Z,21.2
2017-05-10T10:23:28.189Z,21.7
2017-05-10T10:24:31.190Z,21.9
2017-05-10T10:25:33.670Z,21.6
2017-05-10T10:26:36.050Z,21.5
2017-05-10T10:27:38.440Z,21.6
2017-05-10T10:28:40.854Z,21.2
2017-05-10T10:29:43.315Z,21.1
2017-05-10T10:30:45.851Z,21.7
2017-05-10T10:31:48.406Z,21.9
2017-05-10T10:32:50.820Z,21.8
2017-05-10T10:53:33.942Z,20.5
2017-05-10T10:54:38.239Z,20.6
2017-05-10T10:55:45.717Z,21
2017-05-10T10:56:51.057Z,21.1
2017-05-10T10:57:57.851Z,20.9
2017-05-10T10:59:00.631Z,21.1
2017-05-10T11:00:03.471Z,20.1
2017-05-10T11:01:06.854Z,20.1
2017-05-10T11:02:25.157Z,21
2017-05-10T11:03:30.310Z,20
2017-05-10T11:04:41.659Z,20.1
2017-05-10T11:05:46.638Z,21
2017-05-10T11:06:49.280Z,21.6
2017-05-10T11:07:54.461Z,21.4
2017-05-10T11:08:57.029Z,21.4
2017-05-10T11:09:59.564Z,21.1
2017-05-10T11:11:06.745Z,21.1
2017-05-10T11:12:09.328Z,21.2
2017-05-10T11:13:13.491Z,21.5
2017-05-10T11:14:16.013Z,21.5
2017-05-10T11:15:19.119Z,21.5
2017-05-10T11:16:21.734Z,22.1
2017-05-10T11:18:41.271Z,20.4
2017-05-10T11:19:43.820Z,21.3
2017-05-10T11:20:46.434Z,21.1
2017-05-10T11:21:53.050Z,20.8
2017-05-10T11:22:59.824Z,20.6
2017-05-10T11:25:12.445Z,20.8
2017-05-10T11:26:15.172Z,21.3
2017-05-10T11:27:18.657Z,20.8
2017-05-10T11:28:21.975Z,20.8
2017-05-10T11:29:24.638Z,20.5
2017-05-10T11:30:27.157Z,20.4
2017-05-10T11:31:29.596Z,20.6
2017-05-10T11:32:32.000Z,20.1
2017-05-10T11:33:34.467Z,20.5
2017-05-10T11:34:36.944Z,20.6
2017-05-10T11:35:39.397Z,21
2017-05-10T11:36:41.887Z,20.7
2017-05-10T11:37:44.503Z,21.1
2017-05-10T11:38:47.036Z,20.9
2017-05-10T11:39:49.445Z,20.2
2017-05-10T11:40:51.922Z,20.2
2017-05-10T11:41:55.093Z,21.1
2017-05-10T11:42:57.555Z,21.1
2017-05-10T11:43:59.978Z,20.9
2017-05-10T11:45:02.528Z,20.7
2017-05-10T11:46:05.137Z,20.5
2017-05-10T11:47:07.599Z,21
2017-05-10T11:48:10.047Z,20.4
2017-05-10T11:49:12.553Z,20.9
2017-05-10T11:50:15.066Z,21.1
2017-05-10T11:51:17.545Z,20.6
2017-05-10T11:52:19.917Z,20
2017-05-10T11:53:22.412Z,20.2
2017-05-10T11:54:24.911Z,20.6
2017-05-10T11:55:27.380Z,20.8
2017-05-10T11:56:30.454Z,21
2017-05-10T11:57:32.903Z,21.1
2017-05-10T11:58:35.762Z,20.9
2017-05-10T11:59:41.471Z,20.4
2017-05-10T12:00:44.552Z,20.5
2017-05-10T12:01:48.015Z,20.4
2017-05-10T12:02:51.702Z,20.7
2017-05-10T12:03:54.834Z,21
2017-05-10T12:04:59.770Z,20.6
2017-05-10T12:06:04.322Z,20
2017-05-10T12:07:06.868Z,20.4
2017-05-10T12:08:10.403Z,20.6
2017-05-10T12:09:13.857Z,20.7
2017-05-10T12:10:16.306Z,20.8
2017-05-10T12:11:18.884Z,20.3
2017-05-10T12:12:22.526Z,20.7
2017-05-10T12:13:25.753Z,20.7
2017-05-10T12:14:29.748Z,20.7
2017-05-10T12:15:33.940Z,20.8
2017-05-10T12:16:37.489Z,20.3
2017-05-10T12:17:40.558Z,20
2017-05-10T12:18:45.469Z,20.8
2017-05-10T12:19:48.546Z,19.9
2017-05-10T12:20:53.422Z,19.9
2017-05-10T12:21:56.401Z,20.4
2017-05-10T13:10:49.968Z,20.1
2017-05-10T13:11:52.457Z,20.4
2017-05-10T13:12:54.891Z,20.4
2017-05-10T13:13:57.358Z,20.1
2017-05-10T13:15:00.378Z,19.4
2017-05-10T13:16:02.830Z,19.6
2017-05-10T13:17:05.341Z,20.1
2017-05-10T13:18:07.808Z,20.2
2017-05-10T13:19:10.390Z,20.2
2017-05-10T13:20:12.858Z,20.4
2017-05-10T13:21:15.360Z,20.6
2017-05-10T13:22:17.909Z,20.3
2017-05-10T13:23:21.349Z,20.5
2017-05-10T13:24:23.788Z,20.9
2017-05-10T13:25:30.142Z,19.8
2017-05-10T13:26:32.813Z,19.7
2017-05-10T13:27:35.324Z,19.7
2017-05-10T13:28:40.610Z,19.7
2017-05-10T13:29:43.050Z,20.1
2017-05-10T13:30:45.625Z,20.3
2017-05-10T13:31:48.393Z,20.3
2017-05-10T13:32:50.840Z,20
2017-05-10T13:33:53.322Z,20.2
2017-05-10T13:34:57.265Z,19.9
2017-05-10T13:35:59.969Z,19.5
2017-05-10T13:37:03.439Z,19.6
2017-05-10T13:38:06.621Z,20
2017-05-10T13:39:09.708Z,19.6
2017-05-10T13:40:12.139Z,20
2017-05-10T13:41:14.671Z,20.1
2017-05-10T13:42:17.172Z,19.7
2017-05-10T13:43:19.639Z,19.5
2017-05-10T13:44:22.787Z,19
2017-05-10T13:45:25.843Z,19.1
2017-05-10T13:46:28.305Z,20.2
2017-05-10T13:47:34.349Z,20
2017-05-10T13:48:37.551Z,20
2017-05-10T13:49:40.017Z,19.7
2017-05-10T13:50:42.448Z,19.7
2017-05-10T13:51:45.518Z,19.4
2017-05-10T13:52:48.036Z,19.1
2017-05-10T13:53:51.827Z,19.7
2017-05-10T13:54:54.288Z,19.9
2017-05-10T13:55:56.751Z,19.8
2017-05-10T13:56:59.204Z,20.3
2017-05-10T13:58:01.668Z,20.4
2017-05-10T13:59:04.036Z,20.3
2017-05-10T14:00:06.484Z,19.9
2017-05-10T14:01:09.036Z,19.8
2017-05-10T14:02:11.483Z,19.4
2017-05-10T14:03:13.901Z,20
2017-05-10T14:04:16.969Z,19.7
2017-05-10T14:05:20.074Z,20.1
2017-05-10T14:06:22.499Z,19.5
2017-05-10T14:07:24.885Z,19.2
2017-05-10T14:08:28.264Z,19.2
2017-05-10T14:09:30.685Z,19
2017-05-10T14:10:33.719Z,18.8
2017-05-10T14:11:36.460Z,19
2017-05-10T14:12:38.946Z,19
2017-05-10T14:13:41.406Z,19.5
2017-05-10T14:14:43.807Z,19.7
2017-05-10T14:15:46.337Z,19.8
2017-05-10T14:16:49.334Z,20.3
2017-05-10T14:17:51.819Z,20
2017-05-10T14:18:54.985Z,20
2017-05-10T14:19:57.428Z,19.7
2017-05-10T14:20:59.873Z,19.9
2017-05-10T14:22:02.348Z,19.8
2017-05-10T14:23:04.833Z,19.6
2017-05-10T14:24:07.433Z,19.7
2017-05-10T14:25:09.845Z,19.7
2017-05-10T14:26:12.297Z,19.6
2017-05-10T14:27:15.470Z,19.5
2017-05-10T14:28:18.548Z,19.3
2017-05-10T14:29:21.039Z,19.1
2017-05-10T14:30:23.463Z,18.9
2017-05-10T14:31:25.976Z,19.1
2017-05-10T14:32:28.377Z,19.3
2017-05-10T14:33:31.532Z,19.4
2017-05-10T14:34:34.611Z,19.3
2017-05-10T14:35:37.112Z,19.1
2017-05-10T14:36:39.899Z,19.2
2017-05-10T14:37:43.220Z,19.2
2017-05-10T14:38:46.765Z,19.4
2017-05-10T14:39:49.252Z,19.5
2017-05-10T14:40:52.227Z,19.7
2017-05-10T14:41:54.702Z,19.6
2017-05-10T14:42:57.918Z,19.7
2017-05-10T14:44:00.357Z,19.5
2017-05-10T14:45:05.023Z,19.8
2017-05-10T14:46:07.451Z,19.7
2017-05-10T14:47:10.920Z,19.1
2017-05-10T14:48:13.664Z,19.3
2017-05-10T14:49:16.738Z,19.5
2017-05-10T14:50:19.146Z,19.4
2017-05-10T14:51:21.669Z,19.3
2017-05-10T14:52:24.089Z,19.5
2017-05-10T14:53:27.283Z,19.5
2017-05-10T14:54:29.768Z,19.6
2017-05-10T14:55:32.166Z,19.4
2017-05-10T14:56:36.433Z,19.1
2017-05-10T14:57:39.418Z,18.2
2017-05-10T14:58:41.952Z,18.4
2017-05-10T14:59:45.780Z,18.7
2017-05-10T15:00:48.344Z,18.8
2017-05-10T15:01:52.082Z,19
2017-05-10T15:02:54.508Z,19.2
2017-05-10T15:03:57.089Z,19.1
2017-05-10T15:05:00.287Z,19.3
2017-05-10T15:06:02.732Z,19.3
2017-05-10T15:07:05.809Z,19.2
2017-05-10T15:08:08.210Z,19.1
2017-05-10T15:09:10.703Z,19.4
2017-05-10T15:10:13.259Z,19.4
2017-05-10T15:11:15.739Z,19.6
2017-05-10T15:12:18.251Z,18.9
2017-05-10T15:13:21.391Z,19
2017-05-10T15:14:23.986Z,19.2
2017-05-10T15:15:26.502Z,19.5
2017-05-10T15:16:29.000Z,19.5
2017-05-10T15:17:31.395Z,19.5
2017-05-10T15:18:34.809Z,19.5
2017-05-10T15:19:37.310Z,19.4
2017-05-10T15:20:39.758Z,19.3
2017-05-10T15:21:42.126Z,18.4
2017-05-10T15:22:45.312Z,18.3
2017-05-10T15:23:48.601Z,18
2017-05-10T15:24:51.049Z,18.1
2017-05-10T15:25:53.476Z,18.3
2017-05-10T15:26:56.618Z,18.7